createdAt,value
2023-11-01T00:00:31.247Z,11.69
2023-11-01T00:01:31.307Z,11.70
2023-11-01T00:02:31.256Z,11.66
2023-11-01T00:03:31.251Z,11.77
2023-11-01T00:04:31.253Z,11.74
2023-11-01T00:05:31.236Z,11.80
2023-11-01T00:06:31.214Z,11.76
2023-11-01T00:07:31.198Z,11.80
2023-11-01T00:08:31.269Z,11.76
2023-11-01T00:09:31.183Z,11.74
2023-11-01T00:10:31.235Z,11.80
2023-11-01T00:11:31.227Z,11.85
2023-11-01T00:12:31.169Z,11.82
2023-11-01T00:13:31.171Z,11.79
2023-11-01T00:14:31.158Z,11.77
2023-11-01T00:15:31.162Z,11.73
2023-11-01T00:16:31.241Z,11.85
2023-11-01T00:17:31.204Z,11.95
2023-11-01T00:18:31.178Z,11.84
2023-11-01T00:19:31.142Z,11.91
2023-11-01T00:20:31.192Z,11.84
2023-11-01T00:21:31.131Z,11.95
2023-11-01T00:22:31.101Z,11.73
2023-11-01T00:23:31.115Z,11.74
2023-11-01T00:24:31.104Z,11.71
2023-11-01T00:25:31.113Z,11.61
2023-11-01T00:26:31.160Z,11.74
2023-11-01T00:27:31.070Z,11.67
2023-11-01T00:28:31.100Z,11.61
2023-11-01T00:29:31.123Z,11.61
2023-11-01T00:30:31.067Z,11.62
2023-11-01T00:31:31.091Z,11.67
2023-11-01T00:33:05.423Z,11.69
2023-11-01T00:33:31.122Z,11.62
2023-11-01T00:34:31.055Z,11.69
2023-11-01T00:35:31.062Z,11.61
2023-11-01T00:36:31.049Z,11.67
2023-11-01T00:37:31.029Z,11.70
2023-11-01T00:38:31.041Z,11.74
2023-11-01T00:39:31.069Z,11.74
2023-11-01T00:40:31.048Z,11.74
2023-11-01T00:41:31.088Z,11.73
2023-11-01T00:42:31.006Z,11.77
2023-11-01T00:43:31.003Z,11.77
2023-11-01T00:44:30.992Z,11.84
2023-11-01T00:45:30.985Z,11.93
2023-11-01T00:46:31.024Z,11.89
2023-11-01T00:47:31.045Z,11.91
2023-11-01T00:48:30.961Z,11.89
2023-11-01T00:49:30.991Z,11.95
2023-11-01T00:50:30.998Z,11.93
2023-11-01T00:51:30.953Z,12.10
2023-11-01T00:52:30.979Z,12.00
2023-11-01T00:53:31.013Z,11.96
2023-11-01T00:54:30.973Z,11.84
2023-11-01T00:55:30.987Z,11.91
2023-11-01T00:56:30.992Z,12.03
2023-11-01T00:57:30.932Z,11.93
2023-11-01T00:58:30.942Z,11.88
2023-11-01T00:59:31.024Z,11.84
2023-11-01T01:00:30.934Z,11.74
2023-11-01T01:01:30.961Z,11.77
2023-11-01T01:02:30.992Z,11.80
2023-11-01T01:03:31.014Z,11.71
2023-11-01T01:04:30.940Z,11.70
2023-11-01T01:05:30.973Z,11.66
2023-11-01T01:06:30.954Z,11.64
2023-11-01T01:07:30.879Z,11.74
2023-11-01T01:08:31.040Z,11.80
2023-11-01T01:09:30.894Z,11.73
2023-11-01T01:10:30.901Z,11.82
2023-11-01T01:11:30.899Z,11.79
2023-11-01T01:12:30.874Z,11.87
2023-11-01T01:13:30.854Z,11.82
2023-11-01T01:14:30.879Z,11.73
2023-11-01T01:15:30.846Z,11.89
2023-11-01T01:16:31.866Z,11.89
2023-11-01T01:17:30.928Z,11.91
2023-11-01T01:18:30.841Z,11.95
2023-11-01T01:19:30.826Z,11.97
2023-11-01T01:20:30.888Z,11.80
2023-11-01T01:21:30.844Z,11.69
2023-11-01T01:22:30.846Z,11.64
2023-11-01T01:23:30.855Z,11.58
2023-11-01T01:24:30.855Z,11.70
2023-11-01T01:25:30.831Z,11.66
2023-11-01T01:26:30.924Z,11.74
2023-11-01T01:27:30.800Z,11.85
2023-11-01T01:28:31.785Z,11.91
2023-11-01T01:29:30.845Z,11.76
2023-11-01T01:30:30.764Z,11.67
2023-11-01T01:31:30.807Z,11.70
2023-11-01T01:32:30.809Z,11.61
2023-11-01T01:33:30.760Z,11.64
2023-11-01T01:34:30.740Z,11.77
2023-11-01T01:35:30.753Z,11.66
2023-11-01T01:36:30.776Z,11.69
2023-11-01T01:37:30.750Z,11.77
2023-11-01T01:38:30.782Z,11.85
2023-11-01T01:39:30.746Z,11.88
2023-11-01T01:40:30.716Z,11.69
2023-11-01T01:41:30.736Z,11.71
2023-11-01T01:42:30.719Z,11.79
2023-11-01T01:43:30.760Z,11.70
2023-11-01T01:44:30.687Z,11.64
2023-11-01T01:45:30.705Z,11.61
2023-11-01T01:46:30.708Z,11.67
2023-11-01T01:47:30.760Z,11.74
2023-11-01T01:48:30.688Z,11.74
2023-11-01T01:49:36.943Z,11.79
2023-11-01T01:50:32.706Z,11.76
2023-11-01T01:51:30.689Z,11.82
2023-11-01T01:52:30.691Z,11.77
2023-11-01T01:53:30.724Z,11.67
2023-11-01T01:54:30.677Z,11.71
2023-11-01T01:55:30.667Z,11.64
2023-11-01T01:56:30.662Z,11.77
2023-11-01T01:57:30.632Z,11.82
2023-11-01T01:58:30.651Z,11.61
2023-11-01T01:59:30.641Z,11.73
2023-11-01T02:00:30.642Z,11.66
2023-11-01T02:01:38.831Z,11.77
2023-11-01T02:02:31.738Z,11.79
2023-11-01T02:03:30.696Z,11.87
2023-11-01T02:04:30.646Z,11.96
2023-11-01T02:05:30.637Z,11.85
2023-11-01T02:06:30.622Z,11.84
2023-11-01T02:07:30.612Z,11.85
2023-11-01T02:08:30.608Z,11.76
2023-11-01T02:09:30.573Z,11.79
2023-11-01T02:10:30.571Z,11.59
2023-11-01T02:11:30.604Z,11.79
2023-11-01T02:12:30.560Z,11.87
2023-11-01T02:13:30.548Z,11.79
2023-11-01T02:14:30.588Z,11.82
2023-11-01T02:15:30.544Z,11.89
2023-11-01T02:16:30.549Z,11.84
2023-11-01T02:17:30.738Z,11.84
2023-11-01T02:18:30.565Z,11.79
2023-11-01T02:19:30.548Z,11.84
2023-11-01T02:20:30.525Z,11.76
2023-11-01T02:21:30.518Z,11.79
2023-11-01T02:22:30.566Z,11.85
2023-11-01T02:23:30.547Z,11.82
2023-11-01T02:24:30.501Z,11.80
2023-11-01T02:25:30.504Z,11.71
2023-11-01T02:26:30.522Z,11.70
2023-11-01T02:27:30.472Z,11.64
2023-11-01T02:28:30.491Z,11.73
2023-11-01T02:29:30.548Z,11.77
2023-11-01T02:30:30.479Z,11.88
2023-11-01T02:31:30.495Z,11.93
2023-11-01T02:32:30.538Z,11.89
2023-11-01T02:33:30.493Z,11.87
2023-11-01T02:34:30.445Z,11.95
2023-11-01T02:35:30.505Z,11.88
2023-11-01T02:36:30.449Z,11.70
2023-11-01T02:37:30.446Z,11.69
2023-11-01T02:38:31.511Z,11.67
2023-11-01T02:39:30.408Z,11.54
2023-11-01T02:40:30.428Z,11.61
2023-11-01T02:41:30.470Z,11.64
2023-11-01T02:42:30.387Z,11.59
2023-11-01T02:43:30.438Z,11.66
2023-11-01T02:44:30.417Z,11.70
2023-11-01T02:45:30.390Z,11.77
2023-11-01T02:46:31.400Z,11.84
2023-11-01T02:47:30.468Z,11.77
2023-11-01T02:48:30.378Z,11.73
2023-11-01T02:49:30.341Z,11.73
2023-11-01T02:50:30.449Z,11.82
2023-11-01T02:51:30.355Z,11.82
2023-11-01T02:52:30.334Z,11.76
2023-11-01T02:53:30.449Z,11.84
2023-11-01T02:54:30.344Z,11.84
2023-11-01T02:55:31.345Z,11.79
2023-11-01T02:56:30.399Z,11.77
2023-11-01T02:57:30.323Z,11.79
2023-11-01T02:58:30.388Z,11.79
2023-11-01T02:59:30.366Z,11.79
2023-11-01T03:00:30.324Z,11.70
2023-11-01T03:01:30.368Z,11.62
2023-11-01T03:02:30.401Z,11.69
2023-11-01T03:03:30.447Z,11.69
2023-11-01T03:04:30.449Z,11.66
2023-11-01T03:05:30.321Z,11.67
2023-11-01T03:06:30.311Z,11.70
2023-11-01T03:07:30.322Z,11.77
2023-11-01T03:08:30.426Z,11.74
2023-11-01T03:09:30.299Z,11.77
2023-11-01T03:10:30.398Z,11.74
2023-11-01T03:11:30.323Z,11.77
2023-11-01T03:12:30.344Z,11.84
2023-11-01T03:13:30.350Z,11.84
2023-11-01T03:14:30.327Z,11.99
2023-11-01T03:15:30.346Z,11.96
2023-11-01T03:16:30.243Z,11.91
2023-11-01T03:17:30.282Z,12.03
2023-11-01T03:18:30.238Z,11.89
2023-11-01T03:19:30.220Z,11.80
2023-11-01T03:20:30.317Z,11.74
2023-11-01T03:21:30.192Z,11.69
2023-11-01T03:22:30.224Z,11.77
2023-11-01T03:23:30.228Z,11.79
2023-11-01T03:24:30.233Z,11.95
2023-11-01T03:25:30.184Z,11.96
2023-11-01T03:26:30.318Z,11.88
2023-11-01T03:27:30.226Z,11.89
2023-11-01T03:28:30.187Z,11.85
2023-11-01T03:29:30.227Z,11.99
2023-11-01T03:30:30.232Z,11.77
2023-11-01T03:31:30.220Z,11.91
2023-11-01T03:32:30.213Z,11.76
2023-11-01T03:33:30.167Z,11.88
2023-11-01T03:34:30.137Z,11.85
2023-11-01T03:35:30.183Z,11.80
2023-11-01T03:36:30.148Z,11.79
2023-11-01T03:37:30.183Z,11.76
2023-11-01T03:38:30.141Z,11.85
2023-11-01T03:39:30.103Z,11.95
2023-11-01T03:40:30.135Z,11.82
2023-11-01T03:41:30.116Z,11.82
2023-11-01T03:42:30.149Z,11.96
2023-11-01T03:43:30.101Z,11.99
2023-11-01T03:44:30.132Z,12.04
2023-11-01T03:45:30.086Z,12.08
2023-11-01T03:46:30.099Z,12.13
2023-11-01T03:47:31.218Z,12.15
2023-11-01T03:48:30.155Z,12.21
2023-11-01T03:49:30.086Z,12.13
2023-11-01T03:50:30.102Z,11.96
2023-11-01T03:51:30.058Z,11.91
2023-11-01T03:52:30.067Z,11.99
2023-11-01T03:53:30.108Z,12.11
2023-11-01T03:54:30.040Z,11.97
2023-11-01T03:55:30.029Z,12.13
2023-11-01T03:56:30.105Z,12.07
2023-11-01T03:57:30.023Z,12.10
2023-11-01T03:58:30.051Z,11.95
2023-11-01T03:59:30.122Z,11.87
2023-11-01T04:00:29.980Z,11.96
2023-11-01T04:01:30.093Z,11.88
2023-11-01T04:02:30.087Z,11.71
2023-11-01T04:03:30.098Z,11.84
2023-11-01T04:04:30.044Z,11.73
2023-11-01T04:05:30.116Z,11.69
2023-11-01T04:06:30.044Z,11.71
2023-11-01T04:07:29.995Z,11.71
2023-11-01T04:08:29.975Z,11.79
2023-11-01T04:09:30.034Z,11.76
2023-11-01T04:10:29.975Z,11.89
2023-11-01T04:11:29.957Z,11.74
2023-11-01T04:12:29.972Z,11.69
2023-11-01T04:13:29.965Z,11.79
2023-11-01T04:14:30.038Z,11.84
2023-11-01T04:15:29.975Z,11.79
2023-11-01T04:16:29.924Z,11.87
2023-11-01T04:17:29.973Z,11.89
2023-11-01T04:18:29.955Z,11.99
2023-11-01T04:19:29.976Z,11.96
2023-11-01T04:20:29.969Z,12.03
2023-11-01T04:21:29.925Z,11.95
2023-11-01T04:22:29.909Z,11.99
2023-11-01T04:23:29.963Z,11.91
2023-11-01T04:24:29.931Z,11.91
2023-11-01T04:25:29.909Z,11.99
2023-11-01T04:26:29.906Z,12.08
2023-11-01T04:27:29.880Z,12.17
2023-11-01T04:28:29.891Z,12.00
2023-11-01T04:29:29.890Z,11.99
2023-11-01T04:30:29.848Z,12.13
2023-11-01T04:31:29.882Z,11.99
2023-11-01T04:32:29.981Z,12.04
2023-11-01T04:33:29.863Z,12.08
2023-11-01T04:34:29.877Z,12.14
2023-11-01T04:35:29.923Z,12.13
2023-11-01T04:36:29.848Z,12.05
2023-11-01T04:37:29.797Z,12.11
2023-11-01T04:38:29.883Z,11.95
2023-11-01T04:39:29.867Z,12.11
2023-11-01T04:40:29.869Z,12.15
2023-11-01T04:41:29.915Z,12.14
2023-11-01T04:42:29.808Z,12.15
2023-11-01T04:43:29.841Z,12.11
2023-11-01T04:44:29.814Z,12.26
2023-11-01T04:45:29.757Z,12.25
2023-11-01T04:46:29.824Z,12.22
2023-11-01T04:47:29.889Z,12.17
2023-11-01T04:48:29.782Z,11.96
2023-11-01T04:49:29.780Z,11.99
2023-11-01T04:50:29.843Z,12.03
2023-11-01T04:51:29.765Z,12.17
2023-11-01T04:52:29.758Z,12.15
2023-11-01T04:53:29.769Z,12.05
2023-11-01T04:54:29.801Z,12.07
2023-11-01T04:55:29.724Z,11.91
2023-11-01T04:56:29.727Z,11.99
2023-11-01T04:57:29.747Z,12.07
2023-11-01T04:58:29.705Z,12.03
2023-11-01T04:59:29.753Z,12.08
2023-11-01T05:00:29.712Z,12.08
2023-11-01T05:01:29.690Z,12.05
2023-11-01T05:02:29.869Z,12.11
2023-11-01T05:03:29.729Z,12.04
2023-11-01T05:04:29.665Z,12.17
2023-11-01T05:05:29.723Z,12.18
2023-11-01T05:06:29.676Z,12.18
2023-11-01T05:07:29.683Z,12.15
2023-11-01T05:08:29.732Z,12.08
2023-11-01T05:09:29.647Z,12.05
2023-11-01T05:10:29.710Z,12.07
2023-11-01T05:11:29.660Z,12.08
2023-11-01T05:12:29.667Z,12.10
2023-11-01T05:13:29.650Z,12.15
2023-11-01T05:14:29.688Z,12.17
2023-11-01T05:15:29.634Z,12.10
2023-11-01T05:16:29.721Z,12.03
2023-11-01T05:17:29.655Z,12.05
2023-11-01T05:18:29.788Z,12.13
2023-11-01T05:19:29.641Z,12.11
2023-11-01T05:20:29.628Z,12.08
2023-11-01T05:21:29.637Z,12.05
2023-11-01T05:22:29.584Z,12.22
2023-11-01T05:23:29.605Z,12.17
2023-11-01T05:24:29.653Z,12.21
2023-11-01T05:25:30.805Z,12.15
2023-11-01T05:26:30.685Z,12.08
2023-11-01T05:27:29.612Z,12.10
2023-11-01T05:28:29.567Z,11.95
2023-11-01T05:29:29.573Z,12.13
2023-11-01T05:30:29.568Z,12.10
2023-11-01T05:31:29.606Z,12.11
2023-11-01T05:32:29.601Z,11.95
2023-11-01T05:33:29.623Z,12.03
2023-11-01T05:34:29.574Z,12.04
2023-11-01T05:35:29.550Z,12.03
2023-11-01T05:36:29.531Z,12.05
2023-11-01T05:37:29.496Z,12.14
2023-11-01T05:38:29.540Z,12.14
2023-11-01T05:39:29.506Z,12.11
2023-11-01T05:40:29.506Z,12.15
2023-11-01T05:41:29.556Z,12.22
2023-11-01T05:42:29.473Z,12.15
2023-11-01T05:43:29.526Z,12.23
2023-11-01T05:44:29.484Z,12.30
2023-11-01T05:45:29.509Z,12.41
2023-11-01T05:46:29.533Z,12.41
2023-11-01T05:47:29.498Z,12.32
2023-11-01T05:48:29.481Z,12.29
2023-11-01T05:49:29.456Z,12.35
2023-11-01T05:50:29.494Z,12.29
2023-11-01T05:51:29.439Z,12.28
2023-11-01T05:52:29.417Z,12.22
2023-11-01T05:53:29.481Z,12.33
2023-11-01T05:54:29.429Z,12.23
2023-11-01T05:55:38.079Z,12.30
2023-11-01T05:56:29.458Z,12.25
2023-11-01T05:57:29.430Z,12.13
2023-11-01T05:58:29.465Z,12.17
2023-11-01T05:59:29.410Z,12.30
2023-11-01T06:00:29.452Z,12.26
2023-11-01T06:01:29.470Z,12.35
2023-11-01T06:02:29.488Z,12.30
2023-11-01T06:03:29.473Z,12.40
2023-11-01T06:04:29.361Z,12.47
2023-11-01T06:05:29.497Z,12.35
2023-11-01T06:06:29.347Z,12.46
2023-11-01T06:07:29.367Z,12.40
2023-11-01T06:08:29.362Z,12.33
2023-11-01T06:09:30.705Z,12.14
2023-11-01T06:10:29.348Z,12.05
2023-11-01T06:11:29.357Z,12.26
2023-11-01T06:12:29.347Z,12.13
2023-11-01T06:13:29.336Z,12.18
2023-11-01T06:14:29.360Z,12.17
2023-11-01T06:15:29.370Z,12.22
2023-11-01T06:16:29.360Z,12.07
2023-11-01T06:17:29.373Z,12.14
2023-11-01T06:18:29.347Z,12.14
2023-11-01T06:19:29.265Z,12.07
2023-11-01T06:20:29.351Z,12.11
2023-11-01T06:21:29.380Z,12.07
2023-11-01T06:22:29.281Z,12.17
2023-11-01T06:23:29.313Z,12.13
2023-11-01T06:24:29.266Z,11.99
2023-11-01T06:25:30.244Z,12.03
2023-11-01T06:26:29.341Z,12.08
2023-11-01T06:27:29.256Z,12.05
2023-11-01T06:28:29.242Z,12.08
2023-11-01T06:29:29.298Z,12.08
2023-11-01T06:30:29.258Z,12.11
2023-11-01T06:31:29.259Z,12.23
2023-11-01T06:32:29.312Z,12.28
2023-11-01T06:33:29.321Z,12.23
2023-11-01T06:34:29.192Z,12.33
2023-11-01T06:35:29.216Z,12.30
2023-11-01T06:36:29.275Z,12.28
2023-11-01T06:37:29.219Z,12.26
2023-11-01T06:38:29.210Z,12.35
2023-11-01T06:39:29.182Z,12.33
2023-11-01T06:40:29.189Z,12.26
2023-11-01T06:41:29.223Z,12.41
2023-11-01T06:42:29.154Z,12.32
2023-11-01T06:43:29.178Z,12.40
2023-11-01T06:44:29.145Z,12.38
2023-11-01T06:45:29.154Z,12.47
2023-11-01T06:46:29.168Z,12.46
2023-11-01T06:47:29.192Z,12.41
2023-11-01T06:48:29.165Z,12.46
2023-11-01T06:49:31.721Z,12.58
2023-11-01T06:50:29.168Z,12.66
2023-11-01T06:51:29.151Z,12.68
2023-11-01T06:52:29.090Z,12.48
2023-11-01T06:53:29.136Z,12.54
2023-11-01T06:54:29.106Z,12.58
2023-11-01T06:55:29.105Z,12.40
2023-11-01T06:56:29.112Z,12.44
2023-11-01T06:57:29.154Z,12.41
2023-11-01T06:58:29.081Z,12.38
2023-11-01T06:59:29.133Z,12.51
2023-11-01T07:00:29.146Z,12.53
2023-11-01T07:01:29.183Z,12.47
2023-11-01T07:02:29.136Z,12.38
2023-11-01T07:03:29.196Z,12.38
2023-11-01T07:04:29.125Z,12.40
2023-11-01T07:05:29.113Z,12.47
2023-11-01T07:06:29.081Z,12.44
2023-11-01T07:07:29.049Z,12.59
2023-11-01T07:08:29.081Z,12.51
2023-11-01T07:09:29.025Z,12.62
2023-11-01T07:10:29.072Z,12.69
2023-11-01T07:11:29.154Z,12.71
2023-11-01T07:12:29.047Z,12.72
2023-11-01T07:13:29.156Z,12.62
2023-11-01T07:14:30.020Z,12.61
2023-11-01T07:15:29.089Z,12.69
2023-11-01T07:16:29.032Z,12.76
2023-11-01T07:17:29.176Z,12.72
2023-11-01T07:18:29.044Z,12.71
2023-11-01T07:19:28.968Z,12.69
2023-11-01T07:20:29.016Z,12.55
2023-11-01T07:21:28.981Z,12.63
2023-11-01T07:22:28.978Z,12.58
2023-11-01T07:23:28.993Z,12.58
2023-11-01T07:24:28.944Z,12.44
2023-11-01T07:25:28.933Z,12.50
2023-11-01T07:26:29.040Z,12.50
2023-11-01T07:27:28.954Z,12.55
2023-11-01T07:28:28.944Z,12.58
2023-11-01T07:29:28.921Z,12.66
2023-11-01T07:30:28.964Z,12.65
2023-11-01T07:31:28.961Z,12.72
2023-11-01T07:32:29.029Z,12.72
2023-11-01T07:33:28.991Z,12.66
2023-11-01T07:34:28.931Z,12.76
2023-11-01T07:35:28.921Z,12.99
2023-11-01T07:36:28.897Z,12.86
2023-11-01T07:37:28.915Z,12.83
2023-11-01T07:38:28.901Z,12.84
2023-11-01T07:39:28.880Z,12.80
2023-11-01T07:40:28.872Z,12.86
2023-11-01T07:41:28.887Z,12.88
2023-11-01T07:42:28.874Z,12.96
2023-11-01T07:43:28.852Z,13.13
2023-11-01T07:44:28.856Z,13.09
2023-11-01T07:45:28.859Z,13.11
2023-11-01T07:46:28.859Z,13.19
2023-11-01T07:47:28.891Z,13.19
2023-11-01T07:48:28.908Z,13.20
2023-11-01T07:49:28.823Z,13.20
2023-11-01T07:50:28.876Z,13.36
2023-11-01T07:51:28.793Z,13.20
2023-11-01T07:52:28.850Z,13.17
2023-11-01T07:53:28.833Z,13.30
2023-11-01T07:54:28.809Z,13.14
2023-11-01T07:55:28.789Z,13.29
2023-11-01T07:56:28.801Z,13.39
2023-11-01T07:57:28.788Z,13.40
2023-11-01T07:58:28.762Z,13.32
2023-11-01T07:59:28.814Z,13.39
2023-11-01T08:00:28.747Z,13.45
2023-11-01T08:01:28.810Z,13.36
2023-11-01T08:02:28.871Z,13.49
2023-11-01T08:03:28.969Z,13.35
2023-11-01T08:04:28.864Z,13.40
2023-11-01T08:05:28.747Z,13.32
2023-11-01T08:06:28.736Z,13.46
2023-11-01T08:07:28.728Z,13.29
2023-11-01T08:08:28.732Z,13.16
2023-11-01T08:09:28.719Z,13.09
2023-11-01T08:10:28.734Z,13.17
2023-11-01T08:11:28.707Z,13.24
2023-11-01T08:12:28.717Z,13.30
2023-11-01T08:13:28.685Z,13.30
2023-11-01T08:14:28.735Z,13.23
2023-11-01T08:15:28.696Z,13.43
2023-11-01T08:16:28.884Z,13.27
2023-11-01T08:17:28.754Z,13.27
2023-11-01T08:18:28.679Z,13.23
2023-11-01T08:19:28.683Z,13.23
2023-11-01T08:20:28.664Z,13.32
2023-11-01T08:21:28.666Z,13.38
2023-11-01T08:22:28.667Z,13.43
2023-11-01T08:23:28.689Z,13.58
2023-11-01T08:24:28.666Z,13.80
2023-11-01T08:25:28.665Z,13.76
2023-11-01T08:26:28.666Z,13.96
2023-11-01T08:27:28.762Z,13.96
2023-11-01T08:28:28.606Z,13.88
2023-11-01T08:29:28.635Z,14.03
2023-11-01T08:30:28.631Z,13.93
2023-11-01T08:31:28.645Z,13.90
2023-11-01T08:32:28.674Z,14.01
2023-11-01T08:33:28.703Z,13.83
2023-11-01T08:34:28.701Z,13.63
2023-11-01T08:35:28.634Z,13.67
2023-11-01T08:36:28.609Z,13.51
2023-11-01T08:37:28.603Z,13.61
2023-11-01T08:38:28.675Z,13.61
2023-11-01T08:39:28.593Z,13.73
2023-11-01T08:40:28.593Z,13.68
2023-11-01T08:41:28.582Z,13.60
2023-11-01T08:42:28.552Z,13.76
2023-11-01T08:43:28.581Z,13.68
2023-11-01T08:44:28.572Z,13.65
2023-11-01T08:45:28.560Z,13.79
2023-11-01T08:46:28.555Z,13.79
2023-11-01T08:47:28.639Z,13.83
2023-11-01T08:48:28.650Z,13.82
2023-11-01T08:49:28.551Z,13.75
2023-11-01T08:50:28.534Z,13.78
2023-11-01T08:51:28.533Z,13.82
2023-11-01T08:52:28.508Z,13.97
2023-11-01T08:53:30.747Z,14.01
2023-11-01T08:54:28.488Z,14.26
2023-11-01T08:55:28.554Z,14.34
2023-11-01T08:56:28.539Z,14.30
2023-11-01T08:57:28.508Z,14.13
2023-11-01T08:58:28.495Z,14.18
2023-11-01T08:59:28.549Z,14.26
2023-11-01T09:00:39.206Z,14.22
2023-11-01T09:01:30.472Z,14.23
2023-11-01T09:02:28.596Z,14.13
2023-11-01T09:03:28.563Z,14.18
2023-11-01T09:04:28.546Z,14.34
2023-11-01T09:05:28.711Z,14.45
2023-11-01T09:06:28.465Z,14.49
2023-11-01T09:07:28.440Z,14.59
2023-11-01T09:08:28.470Z,14.82
2023-11-01T09:09:28.423Z,14.83
2023-11-01T09:10:28.513Z,14.78
2023-11-01T09:11:28.441Z,14.85
2023-11-01T09:12:28.451Z,14.85
2023-11-01T09:13:28.417Z,14.85
2023-11-01T09:14:28.465Z,14.87
2023-11-01T09:15:28.458Z,14.90
2023-11-01T09:16:28.475Z,14.77
2023-11-01T09:17:28.500Z,14.59
2023-11-01T09:18:28.546Z,14.49
2023-11-01T09:19:28.407Z,14.56
2023-11-01T09:20:28.398Z,14.59
2023-11-01T09:21:28.365Z,14.33
2023-11-01T09:22:28.355Z,14.22
2023-11-01T09:23:28.427Z,14.44
2023-11-01T09:24:29.394Z,14.59
2023-11-01T09:25:28.387Z,14.77
2023-11-01T09:26:28.397Z,14.93
2023-11-01T09:27:28.374Z,15.05
2023-11-01T09:28:28.372Z,15.14
2023-11-01T09:29:28.378Z,15.26
2023-11-01T09:30:28.324Z,15.43
2023-11-01T09:31:28.365Z,15.43
2023-11-01T09:32:28.361Z,15.44
2023-11-01T09:33:28.429Z,15.50
2023-11-01T09:34:28.352Z,15.44
2023-11-01T09:35:28.455Z,15.45
2023-11-01T09:36:28.312Z,15.38
2023-11-01T09:37:28.290Z,15.20
2023-11-01T09:38:28.323Z,15.17
2023-11-01T09:39:28.317Z,15.12
2023-11-01T09:40:28.324Z,15.08
2023-11-01T09:41:28.371Z,15.03
2023-11-01T09:42:28.280Z,15.11
2023-11-01T09:43:28.281Z,14.97
2023-11-01T09:44:28.383Z,14.97
2023-11-01T09:45:28.280Z,14.90
2023-11-01T09:46:28.322Z,14.66
2023-11-01T09:47:28.668Z,14.49
2023-11-01T09:48:28.319Z,14.77
2023-11-01T09:49:28.268Z,14.71
2023-11-01T09:50:28.308Z,14.63
2023-11-01T09:51:28.235Z,14.71
2023-11-01T09:52:28.252Z,14.74
2023-11-01T09:53:28.292Z,14.86
2023-11-01T09:54:28.245Z,14.97
2023-11-01T09:55:28.222Z,14.90
2023-11-01T09:56:28.254Z,15.01
2023-11-01T09:57:28.227Z,15.19
2023-11-01T09:58:28.240Z,15.27
2023-11-01T09:59:28.229Z,15.43
2023-11-01T10:00:28.200Z,15.58
2023-11-01T10:01:28.194Z,15.35
2023-11-01T10:02:28.260Z,15.22
2023-11-01T10:03:28.285Z,15.15
2023-11-01T10:04:28.206Z,15.08
2023-11-01T10:05:28.223Z,15.23
2023-11-01T10:06:28.192Z,15.10
2023-11-01T10:07:28.174Z,14.97
2023-11-01T10:08:28.179Z,14.86
2023-11-01T10:09:28.165Z,14.92
2023-11-01T10:10:28.183Z,14.79
2023-11-01T10:11:30.891Z,14.89
2023-11-01T10:12:28.144Z,14.97
2023-11-01T10:13:28.140Z,14.97
2023-11-01T10:14:28.213Z,14.83
2023-11-01T10:15:28.161Z,14.74
2023-11-01T10:16:28.114Z,14.61
2023-11-01T10:17:28.157Z,14.77
2023-11-01T10:18:28.213Z,14.56
2023-11-01T10:19:28.110Z,14.41
2023-11-01T10:20:28.115Z,14.44
2023-11-01T10:21:28.219Z,14.51
2023-11-01T10:22:28.118Z,14.45
2023-11-01T10:23:28.139Z,14.64
2023-11-01T10:24:28.131Z,14.55
2023-11-01T10:25:28.137Z,14.69
2023-11-01T10:26:28.108Z,14.61
2023-11-01T10:27:28.097Z,14.56
2023-11-01T10:28:28.089Z,14.59
2023-11-01T10:29:28.142Z,14.66
2023-11-01T10:30:28.104Z,14.73
2023-11-01T10:31:28.066Z,14.71
2023-11-01T10:32:28.172Z,14.56
2023-11-01T10:33:28.161Z,14.51
2023-11-01T10:34:28.063Z,14.48
2023-11-01T10:35:28.436Z,14.59
2023-11-01T10:36:28.049Z,14.61
2023-11-01T10:37:28.039Z,14.71
2023-11-01T10:38:28.103Z,14.58
2023-11-01T10:39:28.028Z,14.55
2023-11-01T10:40:28.037Z,14.48
2023-11-01T10:41:28.041Z,14.64
2023-11-01T10:42:28.009Z,14.78
2023-11-01T10:43:27.997Z,14.95
2023-11-01T10:44:28.008Z,14.95
2023-11-01T10:45:28.011Z,14.89
2023-11-01T10:46:27.993Z,14.87
2023-11-01T10:47:27.995Z,14.96
2023-11-01T10:48:28.006Z,15.20
2023-11-01T10:49:27.963Z,15.32
2023-11-01T10:50:28.007Z,15.50
2023-11-01T10:51:27.955Z,15.76
2023-11-01T10:52:27.977Z,15.40
2023-11-01T10:53:28.046Z,15.56
2023-11-01T10:54:28.094Z,15.59
2023-11-01T10:55:28.065Z,15.44
2023-11-01T10:56:27.979Z,15.27
2023-11-01T10:57:27.929Z,15.17
2023-11-01T10:58:27.918Z,15.03
2023-11-01T10:59:27.932Z,15.14
2023-11-01T11:00:28.023Z,15.17
2023-11-01T11:01:27.898Z,15.03
2023-11-01T11:02:27.949Z,15.10
2023-11-01T11:03:28.119Z,15.05
2023-11-01T11:04:28.054Z,15.20
2023-11-01T11:05:27.907Z,15.43
2023-11-01T11:06:27.868Z,15.63
2023-11-01T11:07:27.871Z,15.63
2023-11-01T11:08:27.892Z,15.48
2023-11-01T11:09:27.863Z,15.68
2023-11-01T11:10:27.892Z,15.70
2023-11-01T11:11:27.875Z,15.68
2023-11-01T11:12:27.823Z,15.76
2023-11-01T11:13:27.837Z,15.83
2023-11-01T11:14:27.834Z,16.24
2023-11-01T11:15:27.830Z,16.18
2023-11-01T11:16:27.865Z,16.08
2023-11-01T11:17:27.841Z,16.21
2023-11-01T11:18:27.921Z,16.17
2023-11-01T11:19:27.822Z,16.02
2023-11-01T11:20:27.869Z,16.03
2023-11-01T11:21:27.831Z,15.91
2023-11-01T11:22:27.812Z,16.13
2023-11-01T11:23:27.851Z,16.10
2023-11-01T11:24:27.790Z,16.18
2023-11-01T11:25:27.774Z,15.96
2023-11-01T11:26:27.945Z,15.98
2023-11-01T11:27:27.796Z,16.02
2023-11-01T11:28:27.777Z,15.84
2023-11-01T11:29:27.801Z,15.38
2023-11-01T11:30:27.729Z,15.68
2023-11-01T11:31:27.784Z,15.90
2023-11-01T11:32:27.799Z,16.03
2023-11-01T11:33:27.855Z,16.28
2023-11-01T11:34:27.732Z,16.33
2023-11-01T11:35:27.790Z,16.25
2023-11-01T11:36:27.797Z,16.10
2023-11-01T11:37:27.764Z,16.02
2023-11-01T11:38:27.767Z,16.32
2023-11-01T11:39:27.733Z,16.67
2023-11-01T11:40:27.730Z,16.97
2023-11-01T11:41:27.763Z,16.99
2023-11-01T11:42:27.692Z,17.25
2023-11-01T11:43:27.724Z,17.39
2023-11-01T11:44:27.746Z,17.46
2023-11-01T11:45:27.727Z,17.63
2023-11-01T11:46:27.671Z,17.86
2023-11-01T11:47:27.752Z,17.99
2023-11-01T11:48:27.769Z,17.49
2023-11-01T11:49:27.928Z,17.17
2023-11-01T11:50:27.669Z,17.09
2023-11-01T11:51:27.662Z,16.94
2023-11-01T11:52:27.695Z,16.99
2023-11-01T11:53:27.700Z,17.22
2023-11-01T11:54:27.698Z,17.25
2023-11-01T11:55:27.652Z,17.37
2023-11-01T11:56:27.664Z,16.98
2023-11-01T11:57:27.649Z,16.69
2023-11-01T11:58:27.624Z,16.58
2023-11-01T11:59:27.706Z,16.24
2023-11-01T12:00:27.599Z,16.03
2023-11-01T12:01:27.780Z,15.91
2023-11-01T12:02:27.622Z,16.05
2023-11-01T12:03:27.668Z,16.24
2023-11-01T12:04:27.685Z,16.02
2023-11-01T12:05:27.634Z,15.95
2023-11-01T12:06:27.613Z,15.80
2023-11-01T12:07:27.566Z,15.78
2023-11-01T12:08:27.623Z,15.54
2023-11-01T12:09:27.593Z,15.41
2023-11-01T12:10:27.596Z,15.38
2023-11-01T12:11:27.612Z,15.41
2023-11-01T12:12:27.567Z,15.27
2023-11-01T12:13:27.573Z,15.33
2023-11-01T12:14:27.599Z,15.47
2023-11-01T12:15:27.557Z,15.58
2023-11-01T12:16:27.691Z,15.59
2023-11-01T12:17:27.572Z,15.65
2023-11-01T12:18:27.596Z,15.84
2023-11-01T12:19:27.570Z,16.00
2023-11-01T12:20:27.544Z,16.37
2023-11-01T12:21:27.534Z,16.73
2023-11-01T12:22:27.559Z,16.82
2023-11-01T12:23:27.487Z,16.74
2023-11-01T12:24:27.506Z,16.65
2023-11-01T12:25:27.495Z,16.67
2023-11-01T12:26:27.488Z,16.58
2023-11-01T12:27:27.516Z,16.16
2023-11-01T12:28:27.486Z,16.06
2023-11-01T12:29:27.491Z,16.05
2023-11-01T12:30:27.476Z,16.08
2023-11-01T12:31:27.464Z,16.25
2023-11-01T12:32:27.522Z,16.36
2023-11-01T12:33:27.591Z,16.26
2023-11-01T12:34:27.435Z,16.29
2023-11-01T12:35:27.464Z,16.21
2023-11-01T12:36:27.445Z,16.24
2023-11-01T12:37:27.441Z,16.17
2023-11-01T12:38:27.450Z,16.49
2023-11-01T12:39:27.430Z,16.79
2023-11-01T12:40:27.460Z,16.80
2023-11-01T12:41:27.408Z,16.64
2023-11-01T12:42:27.423Z,16.33
2023-11-01T12:43:27.446Z,16.28
2023-11-01T12:44:27.409Z,16.42
2023-11-01T12:45:27.406Z,16.28
2023-11-01T12:46:27.442Z,16.03
2023-11-01T12:47:27.404Z,15.88
2023-11-01T12:48:27.458Z,16.03
2023-11-01T12:49:27.387Z,16.28
2023-11-01T12:50:27.357Z,16.42
2023-11-01T12:51:27.361Z,16.37
2023-11-01T12:52:27.350Z,16.40